Fort Fraser, Canada
Current Conditions -  °F | °C
As of 1:34 PM on Saturday 20 Dec 2014 (Local Time) from CYXS Reporting Station
Overcast Overcast  
Wind Chill: 28°   Ceiling: 3500
Heat Index: 39°   Visibility: 9mi
Dew Point: 28°   Wind: 28mph
Humidity: 65%   Direction: 170°S
Pressure: 29.29"   Gusts: 38mph
Location:  54.05°N, 124.53°W
Report Text: CYXS 202134Z AUTO 17024G33KT 9SM OVC035 04/M02 A2929 RMK SLP940
Loading
Personal Weather Stations






























Interactive Weather Map New forecast layout! Learn more

10-Day Weather Forecast

Advertisements
Track Severe Weather on mobile